sensor_id;sensor_type;location;lat;lon;timestamp;pressure;altitude;pressure_sealevel;temperature;humidity
10824;BME280;39116;59.332;18.034;2023-04-10T00:00:09;102478.06;;;5.27;100.00
10824;BME280;39116;59.332;18.034;2023-04-10T00:02:31;102424.13;;;5.02;100.00
10824;BME280;39116;59.332;18.034;2023-04-10T00:04:54;102457.69;;;4.87;100.00
10824;BME280;39116;59.332;18.034;2023-04-10T00:07:15;102476.47;;;5.14;100.00
10824;BME280;39116;59.332;18.034;2023-04-10T00:09:37;102472.09;;;4.84;100.00
10824;BME280;39116;59.332;18.034;2023-04-10T00:12:01;102484.31;;;5.16;100.00
10824;BME280;39116;59.332;18.034;2023-04-10T00:14:23;102481.09;;;5.20;100.00
10824;BME280;39116;59.332;18.034;2023-04-10T00:16:44;102475.41;;;5.11;100.00
10824;BME280;39116;59.332;18.034;2023-04-10T00:19:06;102478.59;;;5.22;100.00
10824;BME280;39116;59.332;18.034;2023-04-10T00:21:28;102475.47;;;5.27;100.00
10824;BME280;39116;59.332;18.034;2023-04-10T00:23:50;102471.84;;;5.39;100.00
10824;BME280;39116;59.332;18.034;2023-04-10T00:26:12;102472.41;;;5.33;100.00
10824;BME280;39116;59.332;18.034;2023-04-10T00:28:36;102474.34;;;5.37;100.00
10824;BME280;39116;59.332;18.034;2023-04-10T00:30:58;102463.59;;;5.29;100.00
10824;BME280;39116;59.332;18.034;2023-04-10T00:33:20;102462.56;;;5.27;100.00
10824;BME280;39116;59.332;18.034;2023-04-10T00:35:41;102478.81;;;5.10;100.00
10824;BME280;39116;59.332;18.034;2023-04-10T00:38:03;102482.00;;;5.06;100.00
10824;BME280;39116;59.332;18.034;2023-04-10T00:40:25;102475.94;;;5.05;100.00
10824;BME280;39116;59.332;18.034;2023-04-10T00:42:49;102478.25;;;5.01;100.00
10824;BME280;39116;59.332;18.034;2023-04-10T00:45:13;102460.84;;;4.53;100.00
10824;BME280;39116;59.332;18.034;2023-04-10T00:47:36;102478.91;;;4.68;100.00
10824;BME280;39116;59.332;18.034;2023-04-10T00:49:58;102482.84;;;4.33;100.00
10824;BME280;39116;59.332;18.034;2023-04-10T00:52:21;102458.19;;;4.24;100.00
10824;BME280;39116;59.332;18.034;2023-04-10T00:54:43;102482.50;;;4.42;100.00
10824;BME280;39116;59.332;18.034;2023-04-10T00:57:05;102484.13;;;4.40;100.00
10824;BME280;39116;59.332;18.034;2023-04-10T00:59:27;102479.72;;;4.52;100.00
10824;BME280;39116;59.332;18.034;2023-04-10T01:01:50;102482.31;;;4.67;100.00
10824;BME280;39116;59.332;18.034;2023-04-10T01:04:13;102474.81;;;4.72;100.00
10824;BME280;39116;59.332;18.034;2023-04-10T01:06:48;102469.66;;;4.72;100.00
10824;BME280;39116;59.332;18.034;2023-04-10T01:09:16;102477.69;;;4.76;100.00
10824;BME280;39116;59.332;18.034;2023-04-10T01:11:47;102464.25;;;4.67;100.00
10824;BME280;39116;59.332;18.034;2023-04-10T01:14:20;102464.69;;;4.75;100.00
10824;BME280;39116;59.332;18.034;2023-04-10T01:16:47;102474.81;;;4.72;100.00
10824;BME280;39116;59.332;18.034;2023-04-10T01:19:20;102480.19;;;4.75;100.00
10824;BME280;39116;59.332;18.034;2023-04-10T01:21:46;102454.47;;;4.62;100.00
10824;BME280;39116;59.332;18.034;2023-04-10T01:24:20;102469.50;;;4.69;100.00
10824;BME280;39116;59.332;18.034;2023-04-10T01:27:06;102462.00;;;4.58;100.00
10824;BME280;39116;59.332;18.034;2023-04-10T01:29:33;102473.59;;;4.65;100.00
10824;BME280;39116;59.332;18.034;2023-04-10T01:32:00;102470.91;;;4.64;100.00
10824;BME280;39116;59.332;18.034;2023-04-10T01:34:24;102463.81;;;4.59;100.00
10824;BME280;39116;59.332;18.034;2023-04-10T01:36:50;102462.19;;;4.62;100.00
10824;BME280;39116;59.332;18.034;2023-04-10T01:39:12;102465.38;;;4.57;100.00
10824;BME280;39116;59.332;18.034;2023-04-10T01:41:35;102463.22;;;4.50;100.00
10824;BME280;39116;59.332;18.034;2023-04-10T01:43:59;102466.81;;;4.52;100.00
10824;BME280;39116;59.332;18.034;2023-04-10T01:46:26;102469.94;;;4.62;100.00
10824;BME280;39116;59.332;18.034;2023-04-10T01:48:51;102462.44;;;4.51;100.00
10824;BME280;39116;59.332;18.034;2023-04-10T01:51:14;102468.38;;;4.50;100.00
10824;BME280;39116;59.332;18.034;2023-04-10T01:53:38;102471.78;;;4.49;100.00
10824;BME280;39116;59.332;18.034;2023-04-10T01:56:01;102474.06;;;4.45;100.00
10824;BME280;39116;59.332;18.034;2023-04-10T01:58:23;102470.50;;;4.43;100.00
10824;BME280;39116;59.332;18.034;2023-04-10T02:00:45;102474.38;;;4.36;100.00
10824;BME280;39116;59.332;18.034;2023-04-10T02:03:09;102440.56;;;4.16;100.00
10824;BME280;39116;59.332;18.034;2023-04-10T02:05:35;102468.66;;;4.27;100.00
10824;BME280;39116;59.332;18.034;2023-04-10T02:08:04;102458.97;;;4.23;100.00
10824;BME280;39116;59.332;18.034;2023-04-10T02:10:32;102467.69;;;4.25;100.00
10824;BME280;39116;59.332;18.034;2023-04-10T02:13:00;102466.91;;;4.26;100.00
10824;BME280;39116;59.332;18.034;2023-04-10T02:15:23;102455.41;;;4.20;100.00
10824;BME280;39116;59.332;18.034;2023-04-10T02:17:47;102461.56;;;4.23;100.00
10824;BME280;39116;59.332;18.034;2023-04-10T02:20:11;102467.59;;;4.23;100.00
10824;BME280;39116;59.332;18.034;2023-04-10T02:22:35;102460.28;;;4.16;100.00
10824;BME280;39116;59.332;18.034;2023-04-10T02:24:57;102460.09;;;4.13;100.00
10824;BME280;39116;59.332;18.034;2023-04-10T02:27:27;102464.91;;;4.21;100.00
10824;BME280;39116;59.332;18.034;2023-04-10T02:29:49;102461.25;;;4.18;100.00
10824;BME280;39116;59.332;18.034;2023-04-10T02:32:11;102455.38;;;4.06;100.00
10824;BME280;39116;59.332;18.034;2023-04-10T02:34:33;102460.59;;;4.07;100.00
10824;BME280;39116;59.332;18.034;2023-04-10T02:36:57;102456.53;;;4.11;100.00
10824;BME280;39116;59.332;18.034;2023-04-10T02:39:18;102460.44;;;4.04;100.00
10824;BME280;39116;59.332;18.034;2023-04-10T02:41:40;102459.50;;;4.04;100.00
10824;BME280;39116;59.332;18.034;2023-04-10T02:44:03;102453.47;;;4.03;100.00
10824;BME280;39116;59.332;18.034;2023-04-10T02:46:26;102455.94;;;4.01;100.00
10824;BME280;39116;59.332;18.034;2023-04-10T02:48:48;102455.69;;;3.97;100.00
10824;BME280;39116;59.332;18.034;2023-04-10T02:51:10;102442.28;;;3.89;100.00
10824;BME280;39116;59.332;18.034;2023-04-10T02:53:33;102451.94;;;3.92;100.00
10824;BME280;39116;59.332;18.034;2023-04-10T02:55:55;102450.84;;;3.88;100.00
10824;BME280;39116;59.332;18.034;2023-04-10T02:58:17;102447.19;;;3.85;100.00
10824;BME280;39116;59.332;18.034;2023-04-10T03:00:39;102447.97;;;3.83;100.00
10824;BME280;39116;59.332;18.034;2023-04-10T03:03:01;102448.69;;;3.81;100.00
10824;BME280;39116;59.332;18.034;2023-04-10T03:05:23;102448.78;;;3.82;100.00
10824;BME280;39116;59.332;18.034;2023-04-10T03:07:44;102445.69;;;3.75;100.00
10824;BME280;39116;59.332;18.034;2023-04-10T03:10:09;102448.94;;;3.86;100.00
10824;BME280;39116;59.332;18.034;2023-04-10T03:12:30;102445.13;;;3.79;100.00
10824;BME280;39116;59.332;18.034;2023-04-10T03:14:52;102453.63;;;3.78;100.00
10824;BME280;39116;59.332;18.034;2023-04-10T03:17:15;102445.53;;;3.72;100.00
10824;BME280;39116;59.332;18.034;2023-04-10T03:19:36;102451.88;;;3.77;100.00
10824;BME280;39116;59.332;18.034;2023-04-10T03:21:58;102453.75;;;3.66;100.00
10824;BME280;39116;59.332;18.034;2023-04-10T03:24:21;102445.00;;;3.64;100.00
10824;BME280;39116;59.332;18.034;2023-04-10T03:26:45;102459.44;;;3.09;100.00
10824;BME280;39116;59.332;18.034;2023-04-10T03:29:06;102460.22;;;2.94;100.00
10824;BME280;39116;59.332;18.034;2023-04-10T03:31:28;102448.13;;;2.80;100.00
10824;BME280;39116;59.332;18.034;2023-04-10T03:33:50;102449.16;;;2.95;100.00
10824;BME280;39116;59.332;18.034;2023-04-10T03:36:12;102455.31;;;3.11;100.00
10824;BME280;39116;59.332;18.034;2023-04-10T03:38:34;102450.34;;;3.14;100.00
10824;BME280;39116;59.332;18.034;2023-04-10T03:40:56;102443.34;;;3.11;100.00
10824;BME280;39116;59.332;18.034;2023-04-10T03:43:20;102450.56;;;3.17;100.00
10824;BME280;39116;59.332;18.034;2023-04-10T03:45:41;102450.47;;;3.15;100.00
10824;BME280;39116;59.332;18.034;2023-04-10T03:48:04;102453.16;;;3.17;100.00
10824;BME280;39116;59.332;18.034;2023-04-10T03:50:26;102448.00;;;3.17;100.00
10824;BME280;39116;59.332;18.034;2023-04-10T03:52:47;102453.53;;;3.23;100.00
10824;BME280;39116;59.332;18.034;2023-04-10T03:55:10;102451.56;;;3.19;100.00
10824;BME280;39116;59.332;18.034;2023-04-10T03:57:32;102455.13;;;3.21;100.00
10824;BME280;39116;59.332;18.034;2023-04-10T03:59:55;102445.63;;;3.20;100.00
10824;BME280;39116;59.332;18.034;2023-04-10T04:02:17;102448.59;;;3.26;100.00
10824;BME280;39116;59.332;18.034;2023-04-10T04:04:39;102449.78;;;3.31;100.00
10824;BME280;39116;59.332;18.034;2023-04-10T04:07:01;102441.84;;;3.28;100.00
10824;BME280;39116;59.332;18.034;2023-04-10T04:09:23;102450.56;;;3.30;100.00
10824;BME280;39116;59.332;18.034;2023-04-10T04:11:45;102444.16;;;3.23;100.00
10824;BME280;39116;59.332;18.034;2023-04-10T04:14:07;102437.63;;;3.29;100.00
10824;BME280;39116;59.332;18.034;2023-04-10T04:16:30;102450.97;;;3.36;100.00
10824;BME280;39116;59.332;18.034;2023-04-10T04:18:52;102446.50;;;3.34;100.00
10824;BME280;39116;59.332;18.034;2023-04-10T04:21:14;102447.13;;;3.43;100.00
10824;BME280;39116;59.332;18.034;2023-04-10T04:23:36;102433.94;;;3.38;100.00
10824;BME280;39116;59.332;18.034;2023-04-10T04:25:58;102446.41;;;3.46;100.00
10824;BME280;39116;59.332;18.034;2023-04-10T04:28:20;102448.50;;;3.51;100.00
10824;BME280;39116;59.332;18.034;2023-04-10T04:30:42;102451.88;;;3.50;100.00
10824;BME280;39116;59.332;18.034;2023-04-10T04:33:05;102440.09;;;3.54;100.00
10824;BME280;39116;59.332;18.034;2023-04-10T04:35:27;102453.75;;;3.53;100.00
10824;BME280;39116;59.332;18.034;2023-04-10T04:37:49;102455.03;;;3.59;100.00
10824;BME280;39116;59.332;18.034;2023-04-10T04:40:11;102453.81;;;3.68;100.00
10824;BME280;39116;59.332;18.034;2023-04-10T04:42:33;102454.75;;;3.68;100.00
10824;BME280;39116;59.332;18.034;2023-04-10T04:44:55;102445.13;;;3.66;100.00
10824;BME280;39116;59.332;18.034;2023-04-10T04:47:17;102460.25;;;3.74;100.00
10824;BME280;39116;59.332;18.034;2023-04-10T04:49:40;102455.53;;;3.80;100.00
10824;BME280;39116;59.332;18.034;2023-04-10T04:52:02;102457.50;;;3.85;100.00
10824;BME280;39116;59.332;18.034;2023-04-10T04:54:24;102454.03;;;3.84;100.00
10824;BME280;39116;59.332;18.034;2023-04-10T04:56:46;102458.69;;;3.90;100.00
10824;BME280;39116;59.332;18.034;2023-04-10T04:59:08;102465.19;;;3.98;100.00
10824;BME280;39116;59.332;18.034;2023-04-10T05:01:30;102460.03;;;3.98;100.00
10824;BME280;39116;59.332;18.034;2023-04-10T05:03:52;102459.44;;;4.02;100.00
10824;BME280;39116;59.332;18.034;2023-04-10T05:06:15;102465.94;;;4.10;100.00
10824;BME280;39116;59.332;18.034;2023-04-10T05:08:38;102468.53;;;4.10;100.00
10824;BME280;39116;59.332;18.034;2023-04-10T05:11:00;102468.81;;;4.15;100.00
10824;BME280;39116;59.332;18.034;2023-04-10T05:13:22;102468.50;;;4.24;100.00
10824;BME280;39116;59.332;18.034;2023-04-10T05:15:44;102464.44;;;4.27;100.00
10824;BME280;39116;59.332;18.034;2023-04-10T05:18:05;102468.16;;;4.32;100.00
10824;BME280;39116;59.332;18.034;2023-04-10T05:20:27;102456.75;;;4.29;100.00
10824;BME280;39116;59.332;18.034;2023-04-10T05:22:51;102463.09;;;4.34;100.00
10824;BME280;39116;59.332;18.034;2023-04-10T05:25:13;102456.44;;;4.37;100.00
10824;BME280;39116;59.332;18.034;2023-04-10T05:27:35;102460.00;;;4.39;100.00
10824;BME280;39116;59.332;18.034;2023-04-10T05:29:57;102448.38;;;4.46;100.00
10824;BME280;39116;59.332;18.034;2023-04-10T05:32:19;102453.19;;;4.55;100.00
10824;BME280;39116;59.332;18.034;2023-04-10T05:34:41;102448.31;;;4.59;100.00
10824;BME280;39116;59.332;18.034;2023-04-10T05:37:03;102449.13;;;4.58;100.00
10824;BME280;39116;59.332;18.034;2023-04-10T05:39:26;102426.44;;;4.53;100.00
10824;BME280;39116;59.332;18.034;2023-04-10T05:41:48;102448.06;;;4.70;100.00
10824;BME280;39116;59.332;18.034;2023-04-10T05:44:10;102445.75;;;4.74;100.00
10824;BME280;39116;59.332;18.034;2023-04-10T05:46:32;102442.56;;;4.78;100.00
10824;BME280;39116;59.332;18.034;2023-04-10T05:48:54;102456.72;;;4.85;100.00
10824;BME280;39116;59.332;18.034;2023-04-10T05:51:16;102445.66;;;4.88;100.00
10824;BME280;39116;59.332;18.034;2023-04-10T05:53:38;102447.13;;;4.97;100.00
10824;BME280;39116;59.332;18.034;2023-04-10T05:56:01;102444.44;;;5.11;100.00
10824;BME280;39116;59.332;18.034;2023-04-10T05:58:23;102446.03;;;5.09;100.00
10824;BME280;39116;59.332;18.034;2023-04-10T06:00:45;102443.97;;;5.18;100.00
10824;BME280;39116;59.332;18.034;2023-04-10T06:03:07;102439.34;;;5.27;100.00
10824;BME280;39116;59.332;18.034;2023-04-10T06:05:29;102437.13;;;5.33;100.00
10824;BME280;39116;59.332;18.034;2023-04-10T06:07:51;102443.16;;;5.34;100.00
10824;BME280;39116;59.332;18.034;2023-04-10T06:10:13;102439.25;;;5.41;100.00
10824;BME280;39116;59.332;18.034;2023-04-10T06:12:36;102436.38;;;5.51;100.00
10824;BME280;39116;59.332;18.034;2023-04-10T06:14:58;102427.34;;;5.59;100.00
10824;BME280;39116;59.332;18.034;2023-04-10T06:17:20;102423.34;;;5.64;100.00
10824;BME280;39116;59.332;18.034;2023-04-10T06:19:43;102416.38;;;5.63;100.00
10824;BME280;39116;59.332;18.034;2023-04-10T06:22:05;102424.09;;;5.78;100.00
10824;BME280;39116;59.332;18.034;2023-04-10T06:24:27;102415.44;;;5.78;100.00
10824;BME280;39116;59.332;18.034;2023-04-10T06:26:49;102413.84;;;5.80;100.00
10824;BME280;39116;59.332;18.034;2023-04-10T06:29:12;102423.50;;;5.99;100.00
10824;BME280;39116;59.332;18.034;2023-04-10T06:31:34;102418.59;;;6.03;100.00
10824;BME280;39116;59.332;18.034;2023-04-10T06:33:56;102418.59;;;6.03;100.00
10824;BME280;39116;59.332;18.034;2023-04-10T06:36:18;102422.78;;;6.01;100.00
10824;BME280;39116;59.332;18.034;2023-04-10T06:38:41;102414.78;;;6.13;100.00
10824;BME280;39116;59.332;18.034;2023-04-10T06:41:03;102414.22;;;6.19;100.00
10824;BME280;39116;59.332;18.034;2023-04-10T06:43:26;102417.22;;;6.26;100.00
10824;BME280;39116;59.332;18.034;2023-04-10T06:45:49;102418.75;;;6.39;100.00
10824;BME280;39116;59.332;18.034;2023-04-10T06:48:11;102403.63;;;6.30;100.00
10824;BME280;39116;59.332;18.034;2023-04-10T06:50:33;102403.56;;;6.29;100.00
10824;BME280;39116;59.332;18.034;2023-04-10T06:52:55;102409.94;;;6.52;100.00
10824;BME280;39116;59.332;18.034;2023-04-10T06:55:19;102402.66;;;6.45;100.00
10824;BME280;39116;59.332;18.034;2023-04-10T06:57:41;102400.03;;;6.61;100.00
10824;BME280;39116;59.332;18.034;2023-04-10T07:00:04;102394.53;;;6.72;100.00
10824;BME280;39116;59.332;18.034;2023-04-10T07:02:27;102404.13;;;6.74;100.00
10824;BME280;39116;59.332;18.034;2023-04-10T07:04:49;102378.28;;;6.58;100.00
10824;BME280;39116;59.332;18.034;2023-04-10T07:07:12;102396.25;;;6.55;100.00
10824;BME280;39116;59.332;18.034;2023-04-10T07:09:35;102396.19;;;6.87;100.00
10824;BME280;39116;59.332;18.034;2023-04-10T07:11:57;102405.13;;;6.94;100.00
10824;BME280;39116;59.332;18.034;2023-04-10T07:14:19;102378.06;;;6.87;100.00
10824;BME280;39116;59.332;18.034;2023-04-10T07:16:41;102390.50;;;6.95;100.00
10824;BME280;39116;59.332;18.034;2023-04-10T07:19:04;102396.81;;;7.18;100.00
10824;BME280;39116;59.332;18.034;2023-04-10T07:21:26;102393.09;;;6.95;100.00
10824;BME280;39116;59.332;18.034;2023-04-10T07:23:48;102402.72;;;7.15;100.00
10824;BME280;39116;59.332;18.034;2023-04-10T07:26:10;102400.94;;;7.14;100.00
10824;BME280;39116;59.332;18.034;2023-04-10T07:28:32;102398.72;;;7.22;100.00
10824;BME280;39116;59.332;18.034;2023-04-10T07:30:54;102393.63;;;7.23;100.00
10824;BME280;39116;59.332;18.034;2023-04-10T07:33:15;102399.06;;;7.48;100.00
10824;BME280;39116;59.332;18.034;2023-04-10T07:35:39;102407.50;;;7.61;100.00
10824;BME280;39116;59.332;18.034;2023-04-10T07:38:01;102404.69;;;7.57;100.00
10824;BME280;39116;59.332;18.034;2023-04-10T07:40:23;102403.63;;;7.71;100.00
10824;BME280;39116;59.332;18.034;2023-04-10T07:42:46;102406.78;;;7.46;100.00
10824;BME280;39116;59.332;18.034;2023-04-10T07:45:08;102397.28;;;7.64;100.00
10824;BME280;39116;59.332;18.034;2023-04-10T07:47:30;102403.16;;;7.80;100.00
10824;BME280;39116;59.332;18.034;2023-04-10T07:49:52;102393.91;;;7.85;100.00
10824;BME280;39116;59.332;18.034;2023-04-10T07:52:16;102406.75;;;8.01;100.00
10824;BME280;39116;59.332;18.034;2023-04-10T07:54:37;102409.47;;;8.05;100.00
10824;BME280;39116;59.332;18.034;2023-04-10T07:57:00;102411.69;;;8.15;100.00
10824;BME280;39116;59.332;18.034;2023-04-10T07:59:21;102404.84;;;8.17;100.00
10824;BME280;39116;59.332;18.034;2023-04-10T08:01:43;102400.47;;;8.16;100.00
10824;BME280;39116;59.332;18.034;2023-04-10T08:04:05;102392.53;;;8.13;100.00
10824;BME280;39116;59.332;18.034;2023-04-10T08:06:27;102399.66;;;8.17;100.00
10824;BME280;39116;59.332;18.034;2023-04-10T08:08:52;102403.94;;;8.36;100.00
10824;BME280;39116;59.332;18.034;2023-04-10T08:11:22;102399.59;;;8.35;100.00
10824;BME280;39116;59.332;18.034;2023-04-10T08:13:45;102396.38;;;8.40;100.00
10824;BME280;39116;59.332;18.034;2023-04-10T08:16:07;102407.56;;;8.39;100.00
10824;BME280;39116;59.332;18.034;2023-04-10T08:18:29;102413.44;;;8.35;98.02
10824;BME280;39116;59.332;18.034;2023-04-10T08:20:51;102404.56;;;8.50;96.53
10824;BME280;39116;59.332;18.034;2023-04-10T08:23:13;102402.94;;;8.52;96.74
10824;BME280;39116;59.332;18.034;2023-04-10T08:25:36;102401.16;;;8.51;97.21
10824;BME280;39116;59.332;18.034;2023-04-10T08:27:58;102397.75;;;8.52;93.76
10824;BME280;39116;59.332;18.034;2023-04-10T08:30:20;102274.94;;;7.72;94.04
10824;BME280;39116;59.332;18.034;2023-04-10T08:32:42;102404.84;;;8.36;92.36
10824;BME280;39116;59.332;18.034;2023-04-10T08:35:05;102388.50;;;8.58;90.68
10824;BME280;39116;59.332;18.034;2023-04-10T08:37:27;102399.03;;;8.83;89.96
10824;BME280;39116;59.332;18.034;2023-04-10T08:39:48;102386.56;;;8.95;89.98
10824;BME280;39116;59.332;18.034;2023-04-10T08:42:12;102370.41;;;9.02;87.67
10824;BME280;39116;59.332;18.034;2023-04-10T08:44:34;102382.13;;;9.13;86.27
10824;BME280;39116;59.332;18.034;2023-04-10T08:46:58;102388.66;;;9.04;86.15
10824;BME280;39116;59.332;18.034;2023-04-10T08:49:23;102380.00;;;9.26;83.35
10824;BME280;39116;59.332;18.034;2023-04-10T08:51:52;102374.72;;;9.23;80.89
10824;BME280;39116;59.332;18.034;2023-04-10T08:54:18;102368.88;;;9.28;80.26
10824;BME280;39116;59.332;18.034;2023-04-10T08:56:41;102379.84;;;9.44;79.78
10824;BME280;39116;59.332;18.034;2023-04-10T08:59:09;102368.06;;;9.31;79.72
10824;BME280;39116;59.332;18.034;2023-04-10T09:01:31;102362.06;;;9.32;78.54
10824;BME280;39116;59.332;18.034;2023-04-10T09:03:54;102368.22;;;9.34;81.79
10824;BME280;39116;59.332;18.034;2023-04-10T09:06:16;102359.81;;;9.41;79.31
10824;BME280;39116;59.332;18.034;2023-04-10T09:08:38;102363.25;;;9.40;79.52
10824;BME280;39116;59.332;18.034;2023-04-10T09:11:00;102239.75;;;8.82;74.91
10824;BME280;39116;59.332;18.034;2023-04-10T09:13:34;102358.84;;;9.62;75.69
10824;BME280;39116;59.332;18.034;2023-04-10T09:15:58;102359.13;;;9.68;76.81
10824;BME280;39116;59.332;18.034;2023-04-10T09:18:20;102357.31;;;9.67;76.83
10824;BME280;39116;59.332;18.034;2023-04-10T09:20:42;102234.72;;;9.09;76.66
10824;BME280;39116;59.332;18.034;2023-04-10T09:23:19;102360.13;;;9.71;74.49
10824;BME280;39116;59.332;18.034;2023-04-10T09:25:41;102350.72;;;9.75;72.60
10824;BME280;39116;59.332;18.034;2023-04-10T09:28:05;102352.09;;;9.89;69.97
10824;BME280;39116;59.332;18.034;2023-04-10T09:30:35;102348.38;;;9.83;70.41
10824;BME280;39116;59.332;18.034;2023-04-10T09:33:00;102349.25;;;9.83;70.06
10824;BME280;39116;59.332;18.034;2023-04-10T09:35:22;102344.44;;;9.94;69.19
10824;BME280;39116;59.332;18.034;2023-04-10T09:37:44;102347.97;;;9.94;66.74
10824;BME280;39116;59.332;18.034;2023-04-10T09:40:19;102343.28;;;10.10;69.16
10824;BME280;39116;59.332;18.034;2023-04-10T09:42:42;102330.69;;;9.97;69.99
10824;BME280;39116;59.332;18.034;2023-04-10T09:45:04;102332.78;;;10.07;71.10
10824;BME280;39116;59.332;18.034;2023-04-10T09:47:27;102330.47;;;10.15;70.46
10824;BME280;39116;59.332;18.034;2023-04-10T09:49:51;102335.41;;;10.07;72.25
10824;BME280;39116;59.332;18.034;2023-04-10T09:52:18;102329.09;;;10.26;74.06
10824;BME280;39116;59.332;18.034;2023-04-10T09:54:40;102333.03;;;10.39;71.69
10824;BME280;39116;59.332;18.034;2023-04-10T09:57:03;102322.63;;;10.39;70.04
10824;BME280;39116;59.332;18.034;2023-04-10T09:59:27;102330.38;;;10.36;69.54
10824;BME280;39116;59.332;18.034;2023-04-10T10:01:49;102329.97;;;10.25;70.05
10824;BME280;39116;59.332;18.034;2023-04-10T10:04:13;102323.50;;;10.38;68.91
10824;BME280;39116;59.332;18.034;2023-04-10T10:06:38;102314.06;;;10.41;69.44
10824;BME280;39116;59.332;18.034;2023-04-10T10:09:01;102322.06;;;10.47;69.37
10824;BME280;39116;59.332;18.034;2023-04-10T10:11:24;102317.03;;;10.52;67.88
10824;BME280;39116;59.332;18.034;2023-04-10T10:13:48;102276.81;;;10.18;68.01
10824;BME280;39116;59.332;18.034;2023-04-10T10:16:14;102319.13;;;10.62;65.98
10824;BME280;39116;59.332;18.034;2023-04-10T10:18:43;102305.75;;;10.79;64.50
10824;BME280;39116;59.332;18.034;2023-04-10T10:21:07;102308.25;;;10.76;65.25
10824;BME280;39116;59.332;18.034;2023-04-10T10:23:32;102305.53;;;10.73;62.94
10824;BME280;39116;59.332;18.034;2023-04-10T10:25:55;102306.44;;;10.73;60.96
10824;BME280;39116;59.332;18.034;2023-04-10T10:28:20;102298.16;;;10.86;61.64
10824;BME280;39116;59.332;18.034;2023-04-10T10:30:46;102303.66;;;10.96;61.50
10824;BME280;39116;59.332;18.034;2023-04-10T10:33:09;102299.03;;;10.87;61.19
10824;BME280;39116;59.332;18.034;2023-04-10T10:35:31;102300.84;;;10.88;58.78
10824;BME280;39116;59.332;18.034;2023-04-10T10:37:55;102297.59;;;10.95;58.72
10824;BME280;39116;59.332;18.034;2023-04-10T10:40:24;102294.44;;;11.05;58.17
10824;BME280;39116;59.332;18.034;2023-04-10T10:42:55;102291.13;;;11.11;56.81
10824;BME280;39116;59.332;18.034;2023-04-10T10:45:21;102282.44;;;10.83;55.50
10824;BME280;39116;59.332;18.034;2023-04-10T10:47:50;102280.44;;;11.02;53.12
10824;BME280;39116;59.332;18.034;2023-04-10T10:50:12;102272.63;;;11.03;52.50
10824;BME280;39116;59.332;18.034;2023-04-10T10:52:38;102274.78;;;11.17;52.55
10824;BME280;39116;59.332;18.034;2023-04-10T10:54:59;102271.09;;;11.10;52.26
10824;BME280;39116;59.332;18.034;2023-04-10T10:57:47;102260.78;;;11.13;50.04
10824;BME280;39116;59.332;18.034;2023-04-10T11:00:10;102267.84;;;11.17;50.68
10824;BME280;39116;59.332;18.034;2023-04-10T11:02:32;102267.53;;;11.06;49.34
10824;BME280;39116;59.332;18.034;2023-04-10T11:04:54;102257.63;;;11.25;49.13
10824;BME280;39116;59.332;18.034;2023-04-10T11:07:16;102257.16;;;11.08;45.60
10824;BME280;39116;59.332;18.034;2023-04-10T11:09:49;102252.22;;;11.17;44.96
10824;BME280;39116;59.332;18.034;2023-04-10T11:12:11;102254.69;;;11.13;45.70
10824;BME280;39116;59.332;18.034;2023-04-10T11:14:34;102256.00;;;10.98;45.70
10824;BME280;39116;59.332;18.034;2023-04-10T11:16:56;102254.00;;;11.18;43.89
10824;BME280;39116;59.332;18.034;2023-04-10T11:19:18;102248.91;;;11.23;44.66
10824;BME280;39116;59.332;18.034;2023-04-10T11:22:04;102245.41;;;11.22;43.96
10824;BME280;39116;59.332;18.034;2023-04-10T11:24:27;102248.06;;;11.24;45.72
10824;BME280;39116;59.332;18.034;2023-04-10T11:26:49;102241.72;;;11.16;45.88
10824;BME280;39116;59.332;18.034;2023-04-10T11:29:34;102231.66;;;11.28;44.41
10824;BME280;39116;59.332;18.034;2023-04-10T11:31:57;102232.22;;;11.18;45.83
10824;BME280;39116;59.332;18.034;2023-04-10T11:34:20;102229.50;;;11.43;45.55
10824;BME280;39116;59.332;18.034;2023-04-10T11:36:43;102226.28;;;11.22;45.50
10824;BME280;39116;59.332;18.034;2023-04-10T11:39:06;102234.72;;;11.43;45.97
10824;BME280;39116;59.332;18.034;2023-04-10T11:41:29;102180.81;;;11.12;45.99
10824;BME280;39116;59.332;18.034;2023-04-10T11:43:52;102225.03;;;11.39;45.68
10824;BME280;39116;59.332;18.034;2023-04-10T11:46:15;102220.31;;;11.56;46.46
10824;BME280;39116;59.332;18.034;2023-04-10T11:48:37;102215.28;;;11.64;45.58
10824;BME280;39116;59.332;18.034;2023-04-10T11:51:06;102224.28;;;11.75;46.02
10824;BME280;39116;59.332;18.034;2023-04-10T11:53:28;102217.81;;;11.61;45.83
10824;BME280;39116;59.332;18.034;2023-04-10T11:55:50;102214.16;;;11.54;46.17
10824;BME280;39116;59.332;18.034;2023-04-10T11:58:25;102199.09;;;11.76;46.28
10824;BME280;39116;59.332;18.034;2023-04-10T12:00:55;102202.84;;;11.87;45.83
10824;BME280;39116;59.332;18.034;2023-04-10T12:03:30;102199.44;;;11.90;45.69
10824;BME280;39116;59.332;18.034;2023-04-10T12:05:52;102189.16;;;11.94;46.48
10824;BME280;39116;59.332;18.034;2023-04-10T12:08:14;102186.28;;;12.18;45.35
10824;BME280;39116;59.332;18.034;2023-04-10T12:10:44;102186.81;;;12.40;45.42
10824;BME280;39116;59.332;18.034;2023-04-10T12:13:06;102180.28;;;12.59;45.75
10824;BME280;39116;59.332;18.034;2023-04-10T12:15:28;102173.53;;;12.69;45.72
10824;BME280;39116;59.332;18.034;2023-04-10T12:17:51;102184.59;;;12.57;45.38
10824;BME280;39116;59.332;18.034;2023-04-10T12:20:15;102185.94;;;12.79;45.16